createdAt,value
2022-08-03T00:00:26.323Z,98537.13
2022-08-03T00:02:53.310Z,98532.94
2022-08-03T00:05:20.193Z,98538.81
2022-08-03T00:07:46.796Z,98535.72
2022-08-03T00:10:16.101Z,98524.13
2022-08-03T00:12:42.524Z,98528.13
2022-08-03T00:15:11.164Z,98537.78
2022-08-03T00:17:53.510Z,98533.78
2022-08-03T00:20:21.602Z,98533.78
2022-08-03T00:22:48.599Z,98526.47
2022-08-03T00:25:15.256Z,98525.53
2022-08-03T00:27:41.739Z,98527.88
2022-08-03T00:30:08.922Z,98524.91
2022-08-03T00:32:35.363Z,98521.75
2022-08-03T00:35:08.109Z,98527.78
2022-08-03T00:37:40.887Z,98533.34
2022-08-03T00:40:13.499Z,98525.84
2022-08-03T00:43:07.118Z,98530.56
2022-08-03T00:45:38.406Z,98528.25
2022-08-03T00:48:06.660Z,98519.59
2022-08-03T00:50:54.214Z,98521.53
2022-08-03T00:53:20.967Z,98529.31
2022-08-03T00:55:47.518Z,98523.28
2022-08-03T00:58:14.096Z,98529.78
2022-08-03T01:00:40.968Z,98529.03
2022-08-03T01:03:10.119Z,98532.28
2022-08-03T01:06:00.784Z,98526.34
2022-08-03T01:08:40.418Z,98524.66
2022-08-03T01:11:15.692Z,98522.81
2022-08-03T01:14:04.249Z,98524.41
2022-08-03T01:16:58.045Z,98515.75
2022-08-03T01:19:24.426Z,98520.31
2022-08-03T01:22:09.693Z,98519.75
2022-08-03T01:25:06.084Z,98526.78
2022-08-03T01:28:03.515Z,98526.28
2022-08-03T01:30:32.285Z,98526.75
2022-08-03T01:33:03.690Z,98515.84
2022-08-03T01:35:42.203Z,98517.31
2022-08-03T01:38:24.646Z,98512.97
2022-08-03T01:40:54.674Z,98524.72
2022-08-03T01:44:26.968Z,98526.84
2022-08-03T01:46:15.849Z,98517.56
2022-08-03T01:48:44.290Z,98512.69
2022-08-03T01:51:11.959Z,98518.03
2022-08-03T01:53:44.127Z,98512.56
2022-08-03T01:56:12.404Z,98514.59
2022-08-03T01:58:41.046Z,98521.53
2022-08-03T02:01:10.023Z,98512.41
2022-08-03T02:03:59.905Z,98517.84
2022-08-03T02:07:02.104Z,98513.94
2022-08-03T02:09:19.940Z,98520.22
2022-08-03T02:11:47.493Z,98515.88
2022-08-03T02:14:16.192Z,98521.16
2022-08-03T02:16:45.226Z,98512.16
2022-08-03T02:19:13.440Z,98520.53
2022-08-03T02:21:56.829Z,98521.88
2022-08-03T02:24:28.051Z,98522.34
2022-08-03T02:26:56.550Z,98522.03
2022-08-03T02:29:40.150Z,98515.00
2022-08-03T02:32:14.107Z,98506.25
2022-08-03T02:34:43.439Z,98506.25
2022-08-03T02:37:11.552Z,98502.25
2022-08-03T02:39:41.762Z,98506.28
2022-08-03T02:42:12.632Z,98509.31
2022-08-03T02:44:41.504Z,98517.25
2022-08-03T02:47:11.155Z,98508.84
2022-08-03T02:49:50.678Z,98502.34
2022-08-03T02:52:24.003Z,98507.53
2022-08-03T02:54:53.843Z,98506.75
2022-08-03T02:57:23.254Z,98504.06
2022-08-03T02:59:50.815Z,98503.53
2022-08-03T03:02:19.687Z,98499.47
2022-08-03T03:05:50.923Z,98501.03
2022-08-03T03:07:51.400Z,98499.72
2022-08-03T03:10:23.698Z,98498.22
2022-08-03T03:12:56.398Z,98496.41
2022-08-03T03:15:25.093Z,98510.78
2022-08-03T03:17:53.479Z,98503.38
2022-08-03T03:20:29.677Z,98511.50
2022-08-03T03:22:59.238Z,98504.44
2022-08-03T03:25:26.030Z,98507.56
2022-08-03T03:27:53.198Z,98498.53
2022-08-03T03:30:19.689Z,98497.88
2022-08-03T03:32:46.331Z,98500.38
2022-08-03T03:35:14.461Z,98501.34
2022-08-03T03:37:40.999Z,98504.00
2022-08-03T03:40:09.065Z,98511.16
2022-08-03T03:42:35.867Z,98505.97
2022-08-03T03:45:07.275Z,98510.97
2022-08-03T03:47:37.680Z,98501.94
2022-08-03T03:50:06.487Z,98508.28
2022-08-03T03:52:33.930Z,98502.91
2022-08-03T03:55:01.543Z,98509.16
2022-08-03T03:57:29.173Z,98502.91
2022-08-03T03:59:55.765Z,98504.63
2022-08-03T04:02:22.324Z,98501.09
2022-08-03T04:05:07.584Z,98507.25
2022-08-03T04:08:10.473Z,98504.75
2022-08-03T04:10:59.945Z,98502.41
2022-08-03T04:13:33.754Z,98506.94
2022-08-03T04:16:01.429Z,98501.44
2022-08-03T04:18:31.406Z,98506.28
2022-08-03T04:21:01.784Z,98495.06
2022-08-03T04:23:30.898Z,98501.41
2022-08-03T04:25:59.339Z,98507.44
2022-08-03T04:28:30.362Z,98505.06
2022-08-03T04:31:01.270Z,98498.34
2022-08-03T04:33:30.888Z,98505.03
2022-08-03T04:36:02.838Z,98506.50
2022-08-03T04:38:33.088Z,98500.13
2022-08-03T04:41:01.155Z,98510.31
2022-08-03T04:43:29.106Z,98510.25
2022-08-03T04:45:56.890Z,98512.13
2022-08-03T04:48:24.005Z,98510.84
2022-08-03T04:50:50.856Z,98511.75
2022-08-03T04:53:18.185Z,98511.00
2022-08-03T04:55:46.408Z,98519.50
2022-08-03T04:58:12.939Z,98516.06
2022-08-03T05:00:39.452Z,98511.75
2022-08-03T05:03:19.402Z,98521.53
2022-08-03T05:05:51.069Z,98521.56
2022-08-03T05:08:20.649Z,98521.78
2022-08-03T05:10:55.280Z,98520.59
2022-08-03T05:13:23.599Z,98527.25
2022-08-03T05:15:50.645Z,98530.00
2022-08-03T05:18:17.317Z,98532.59
2022-08-03T05:20:45.968Z,98522.66
2022-08-03T05:23:12.586Z,98519.66
2022-08-03T05:25:39.341Z,98525.03
2022-08-03T05:28:06.018Z,98521.84
2022-08-03T05:30:33.948Z,98531.31
2022-08-03T05:33:02.497Z,98525.88
2022-08-03T05:35:57.674Z,98520.47
2022-08-03T05:38:24.236Z,98522.97
2022-08-03T05:40:57.184Z,98520.13
2022-08-03T05:43:24.693Z,98522.50
2022-08-03T05:46:11.636Z,98518.81
2022-08-03T05:48:38.354Z,98525.28
2022-08-03T05:51:11.049Z,98513.09
2022-08-03T05:53:38.424Z,98516.91
2022-08-03T05:56:14.639Z,98521.69
2022-08-03T05:58:48.471Z,98528.31
2022-08-03T06:01:16.186Z,98526.09
2022-08-03T06:03:42.827Z,98529.75
2022-08-03T06:06:09.662Z,98531.31
2022-08-03T06:08:36.152Z,98532.41
2022-08-03T06:11:03.202Z,98531.09
2022-08-03T06:13:29.830Z,98542.50
2022-08-03T06:15:56.423Z,98528.03
2022-08-03T06:18:24.566Z,98523.78
2022-08-03T06:20:52.275Z,98528.47
2022-08-03T06:23:19.347Z,98526.44
2022-08-03T06:25:47.432Z,98529.19
2022-08-03T06:28:42.605Z,98530.91
2022-08-03T06:31:01.914Z,98531.28
2022-08-03T06:33:48.476Z,98523.63
2022-08-03T06:36:15.262Z,98518.41
2022-08-03T06:38:42.006Z,98527.75
2022-08-03T06:41:08.646Z,98528.88
2022-08-03T06:43:37.970Z,98528.88
2022-08-03T06:46:24.068Z,98522.53
2022-08-03T06:48:50.667Z,98530.03
2022-08-03T06:51:17.296Z,98527.91
2022-08-03T06:53:43.763Z,98523.69
2022-08-03T06:56:11.062Z,98527.53
2022-08-03T06:58:37.543Z,98529.84
2022-08-03T07:01:04.045Z,98529.78
2022-08-03T07:03:30.597Z,98532.13
2022-08-03T07:05:57.137Z,98536.25
2022-08-03T07:08:33.561Z,98536.03
2022-08-03T07:11:01.197Z,98535.44
2022-08-03T07:13:27.673Z,98530.28
2022-08-03T07:15:56.149Z,98534.50
2022-08-03T07:18:27.573Z,98530.22
2022-08-03T07:20:57.651Z,98529.91
2022-08-03T07:23:24.167Z,98529.91
2022-08-03T07:25:50.845Z,98528.28
2022-08-03T07:28:17.547Z,98526.13
2022-08-03T07:30:44.058Z,98516.81
2022-08-03T07:33:10.616Z,98525.91
2022-08-03T07:35:37.290Z,98526.41
2022-08-03T07:38:03.734Z,98532.75
2022-08-03T07:40:30.734Z,98523.16
2022-08-03T07:42:58.734Z,98528.06
2022-08-03T07:45:26.639Z,98519.28
2022-08-03T07:47:54.214Z,98517.97
2022-08-03T07:50:22.644Z,98524.09
2022-08-03T07:52:50.490Z,98524.38
2022-08-03T07:55:22.041Z,98523.69
2022-08-03T07:57:59.942Z,98523.41
2022-08-03T08:00:26.587Z,98521.53
2022-08-03T08:02:53.054Z,98522.16
2022-08-03T08:05:19.638Z,98519.75
2022-08-03T08:07:51.009Z,98527.84
2022-08-03T08:10:18.087Z,98512.09
2022-08-03T08:12:44.584Z,98513.34
2022-08-03T08:15:11.137Z,98511.69
2022-08-03T08:17:53.768Z,98507.31
2022-08-03T08:20:28.252Z,98514.41
2022-08-03T08:23:01.330Z,98510.44
2022-08-03T08:25:29.502Z,98504.03
2022-08-03T08:28:30.434Z,98501.00
2022-08-03T08:30:42.566Z,98504.66
2022-08-03T08:33:22.357Z,98499.94
2022-08-03T08:35:50.374Z,98501.81
2022-08-03T08:38:16.863Z,98493.84
2022-08-03T08:40:43.456Z,98494.78
2022-08-03T08:43:10.024Z,98504.50
2022-08-03T08:45:37.555Z,98495.56
2022-08-03T08:48:08.359Z,98496.63
2022-08-03T08:50:37.409Z,98487.78
2022-08-03T08:53:07.018Z,98485.91
2022-08-03T08:55:59.470Z,98490.88
2022-08-03T08:58:24.460Z,98479.31
2022-08-03T09:00:51.090Z,98491.53
2022-08-03T09:03:29.308Z,98482.16
2022-08-03T09:05:57.975Z,98485.06
2022-08-03T09:08:24.635Z,98485.13
2022-08-03T09:10:51.147Z,98484.56
2022-08-03T09:13:17.631Z,98481.00
2022-08-03T09:15:59.112Z,98486.50
2022-08-03T09:18:32.761Z,98492.97
2022-08-03T09:21:35.273Z,98483.00
2022-08-03T09:24:06.333Z,98493.91
2022-08-03T09:26:37.171Z,98492.50
2022-08-03T09:29:14.525Z,98491.34
2022-08-03T09:31:45.000Z,98495.53
2022-08-03T09:34:14.363Z,98488.28
2022-08-03T09:36:46.518Z,98486.09
2022-08-03T09:39:41.728Z,98492.09
2022-08-03T09:42:23.873Z,98478.03
2022-08-03T09:44:51.912Z,98475.59
2022-08-03T09:47:29.961Z,98479.34
2022-08-03T09:50:01.899Z,98471.91
2022-08-03T09:52:52.569Z,98482.84
2022-08-03T09:56:34.857Z,98471.81
2022-08-03T09:58:11.563Z,98480.78
2022-08-03T10:00:54.015Z,98475.78
2022-08-03T10:03:21.806Z,98470.03
2022-08-03T10:05:48.598Z,98472.50
2022-08-03T10:08:16.849Z,98470.09
2022-08-03T10:10:44.515Z,98464.72
2022-08-03T10:13:15.891Z,98466.31
2022-08-03T10:16:22.447Z,98467.53
2022-08-03T10:18:29.100Z,98469.09
2022-08-03T10:21:03.286Z,98468.84
2022-08-03T10:23:34.464Z,98459.63
2022-08-03T10:26:03.712Z,98452.50
2022-08-03T10:28:45.036Z,98445.19
2022-08-03T10:31:13.863Z,98449.28
2022-08-03T10:33:51.490Z,98454.66
2022-08-03T10:36:23.819Z,98445.09
2022-08-03T10:38:55.167Z,98438.50
2022-08-03T10:41:25.967Z,98439.78
2022-08-03T10:44:11.214Z,98433.69
2022-08-03T10:46:44.764Z,98438.06
2022-08-03T10:49:17.217Z,98438.19
2022-08-03T10:52:01.554Z,98433.13
2022-08-03T10:55:01.019Z,98438.84
2022-08-03T10:57:49.917Z,98428.78
2022-08-03T11:00:21.469Z,98431.25
2022-08-03T11:03:26.451Z,98433.41
2022-08-03T11:05:55.929Z,98427.19
2022-08-03T11:08:31.111Z,98416.31
2022-08-03T11:11:21.797Z,98422.41
2022-08-03T11:14:03.298Z,98418.19
2022-08-03T11:16:34.998Z,98419.97
2022-08-03T11:19:04.358Z,98412.97
2022-08-03T11:21:49.075Z,98412.81
2022-08-03T11:24:51.230Z,98408.13
2022-08-03T11:27:19.188Z,98408.31
2022-08-03T11:29:55.047Z,98408.16
2022-08-03T11:32:48.452Z,98408.53
2022-08-03T11:35:35.349Z,98409.66
2022-08-03T11:38:10.133Z,98411.69
2022-08-03T11:40:50.704Z,98408.25
2022-08-03T11:43:30.698Z,98405.50
2022-08-03T11:46:29.671Z,98401.25
2022-08-03T11:49:11.075Z,98405.81
2022-08-03T11:51:39.990Z,98413.72
2022-08-03T11:54:06.973Z,98407.38
2022-08-03T11:56:47.792Z,98401.06
2022-08-03T11:59:20.139Z,98405.16
2022-08-03T12:01:47.604Z,98407.63
2022-08-03T12:04:16.240Z,98404.31
2022-08-03T12:06:59.040Z,98402.09
2022-08-03T12:09:25.487Z,98403.94
2022-08-03T12:12:00.264Z,98397.78
2022-08-03T12:14:49.050Z,98394.34
2022-08-03T12:17:15.908Z,98393.81
2022-08-03T12:19:43.875Z,98387.19
2022-08-03T12:22:10.406Z,98388.84
2022-08-03T12:24:46.891Z,98394.69
2022-08-03T12:27:26.407Z,98384.50
2022-08-03T12:29:58.935Z,98383.34
2022-08-03T12:32:26.826Z,98385.03
2022-08-03T12:34:53.281Z,98378.13
2022-08-03T12:37:22.960Z,98383.81
2022-08-03T12:40:05.353Z,98376.28
2022-08-03T12:42:38.077Z,98374.16
2022-08-03T12:45:28.705Z,98371.41
2022-08-03T12:48:00.559Z,98379.59
2022-08-03T12:50:32.485Z,98371.41
2022-08-03T12:53:00.668Z,98374.25
2022-08-03T12:55:56.377Z,98367.03
2022-08-03T12:58:35.299Z,98362.59
2022-08-03T13:01:05.186Z,98363.44
2022-08-03T13:03:54.799Z,98366.66
2022-08-03T13:06:25.361Z,98358.44
2022-08-03T13:09:12.110Z,98358.59
2022-08-03T13:11:55.589Z,98365.22
2022-08-03T13:14:25.392Z,98359.63
2022-08-03T13:16:51.932Z,98362.44
2022-08-03T13:19:18.488Z,98361.03
2022-08-03T13:21:53.477Z,98360.31
2022-08-03T13:24:30.569Z,98365.09
2022-08-03T13:26:58.447Z,98354.75
2022-08-03T13:29:24.842Z,98357.56
2022-08-03T13:31:51.678Z,98352.19
2022-08-03T13:34:22.940Z,98347.19
2022-08-03T13:39:57.154Z,98346.44
2022-08-03T13:42:25.312Z,98342.53
2022-08-03T13:44:51.844Z,98340.69
2022-08-03T13:47:19.292Z,98343.72
2022-08-03T13:49:54.217Z,98333.63
2022-08-03T13:52:27.535Z,98340.09
2022-08-03T13:54:54.000Z,98333.75
2022-08-03T13:58:04.319Z,98335.84
2022-08-03T14:00:07.878Z,98325.13
2022-08-03T14:02:34.412Z,98327.19
2022-08-03T14:05:00.905Z,98326.91
2022-08-03T14:07:27.329Z,98318.44
2022-08-03T14:09:53.738Z,98320.56
2022-08-03T14:12:20.179Z,98320.34
2022-08-03T14:14:46.637Z,98310.25
2022-08-03T14:17:13.079Z,98305.88
2022-08-03T14:19:53.561Z,98322.31
2022-08-03T14:22:21.203Z,98312.00
2022-08-03T14:24:49.166Z,98310.66
2022-08-03T14:27:16.501Z,98305.75
2022-08-03T14:29:43.117Z,98300.94
2022-08-03T14:32:13.290Z,98303.06
2022-08-03T14:34:40.551Z,98299.78
2022-08-03T14:37:07.296Z,98295.50
2022-08-03T14:42:20.511Z,98298.69
2022-08-03T14:44:48.025Z,98294.94
2022-08-03T14:47:14.851Z,98292.00
2022-08-03T14:50:37.641Z,98287.75
2022-08-03T14:52:28.402Z,98290.72
2022-08-03T14:54:54.818Z,98285.06
2022-08-03T14:57:21.619Z,98280.56
2022-08-03T14:59:55.666Z,98281.91
2022-08-03T15:02:24.529Z,98284.47
2022-08-03T15:04:51.484Z,98275.28
2022-08-03T15:07:18.506Z,98268.69
2022-08-03T15:09:45.305Z,98271.22
2022-08-03T15:12:12.232Z,98269.72
2022-08-03T15:14:38.900Z,98261.84
2022-08-03T15:17:06.228Z,98260.22
2022-08-03T15:20:00.930Z,98254.59
2022-08-03T15:22:20.471Z,98253.88
2022-08-03T15:24:47.560Z,98259.66
2022-08-03T15:27:14.063Z,98252.50
2022-08-03T15:30:07.716Z,98252.50
2022-08-03T15:32:27.146Z,98253.31
2022-08-03T15:34:55.284Z,98252.66
2022-08-03T15:37:22.145Z,98248.13
2022-08-03T15:39:59.990Z,98250.66
2022-08-03T15:42:32.649Z,98240.28
2022-08-03T15:44:59.587Z,98238.34
2022-08-03T15:47:26.698Z,98247.03
2022-08-03T15:49:53.272Z,98243.75
2022-08-03T15:52:19.855Z,98248.72
2022-08-03T15:54:46.320Z,98241.53
2022-08-03T15:57:12.865Z,98243.16
2022-08-03T15:59:39.335Z,98243.28
2022-08-03T16:02:05.854Z,98236.19
2022-08-03T16:04:32.270Z,98233.66
2022-08-03T16:06:58.804Z,98236.16
2022-08-03T16:09:43.100Z,98227.06
2022-08-03T16:12:11.880Z,98230.31
2022-08-03T16:14:51.896Z,98223.22
2022-08-03T16:17:19.517Z,98222.09
2022-08-03T16:19:46.229Z,98223.75
2022-08-03T16:22:14.319Z,98223.97
2022-08-03T16:24:41.257Z,98223.44
2022-08-03T16:27:36.720Z,98227.53
2022-08-03T16:29:54.741Z,98222.63
2022-08-03T16:32:21.222Z,98227.63
2022-08-03T16:34:48.195Z,98224.75
2022-08-03T16:37:37.770Z,98224.69
2022-08-03T16:40:02.069Z,98217.41
2022-08-03T16:42:28.594Z,98225.94
2022-08-03T16:44:55.070Z,98224.00
2022-08-03T16:47:22.772Z,98217.28
2022-08-03T16:49:54.657Z,98225.00
2022-08-03T16:52:23.082Z,98223.44
2022-08-03T16:54:53.243Z,98218.06
2022-08-03T16:57:56.732Z,98217.38
2022-08-03T17:00:12.550Z,98225.09
2022-08-03T17:03:00.705Z,98218.31
2022-08-03T17:05:27.870Z,98223.88
2022-08-03T17:08:10.577Z,98224.28
2022-08-03T17:10:41.666Z,98225.13
2022-08-03T17:13:11.111Z,98233.94
2022-08-03T17:15:57.727Z,98231.16
2022-08-03T17:18:26.711Z,98228.56
2022-08-03T17:20:54.828Z,98226.75
2022-08-03T17:23:45.611Z,98230.09
2022-08-03T17:26:21.237Z,98221.06
2022-08-03T17:28:57.301Z,98225.50
2022-08-03T17:31:31.391Z,98220.94
2022-08-03T17:34:00.886Z,98219.75
2022-08-03T17:36:47.590Z,98224.13
2022-08-03T17:39:16.683Z,98218.09
2022-08-03T17:41:49.094Z,98215.19
2022-08-03T17:44:33.050Z,98218.97
2022-08-03T17:47:04.402Z,98223.25
2022-08-03T17:49:33.382Z,98221.25
2022-08-03T17:52:34.836Z,98217.03
2022-08-03T17:55:56.043Z,98217.97
2022-08-03T17:58:08.554Z,98223.78
2022-08-03T18:01:01.297Z,98218.84
2022-08-03T18:03:58.009Z,98222.56
2022-08-03T18:06:28.535Z,98226.53
2022-08-03T18:09:00.090Z,98226.19
2022-08-03T18:11:35.488Z,98225.47
2022-08-03T18:14:16.414Z,98216.44
2022-08-03T18:16:57.573Z,98222.97
2022-08-03T18:20:03.705Z,98217.63
2022-08-03T18:22:15.118Z,98222.59
2022-08-03T18:24:42.308Z,98217.38
2022-08-03T18:27:10.852Z,98221.59
2022-08-03T18:29:38.070Z,98227.28
2022-08-03T18:32:13.282Z,98226.53
2022-08-03T18:34:53.819Z,98227.69
2022-08-03T18:37:25.950Z,98226.31
2022-08-03T18:42:52.820Z,98231.03
2022-08-03T18:45:57.366Z,98227.28
2022-08-03T18:48:27.189Z,98237.78
2022-08-03T18:50:55.776Z,98235.38
2022-08-03T18:54:03.049Z,98237.88
2022-08-03T18:56:31.437Z,98242.53
2022-08-03T18:59:03.794Z,98237.88
2022-08-03T19:01:59.049Z,98236.22
2022-08-03T19:04:32.995Z,98238.41
2022-08-03T19:07:11.036Z,98251.47
2022-08-03T19:09:37.852Z,98248.41
2022-08-03T19:12:28.188Z,98244.44
2022-08-03T19:15:05.428Z,98254.44
2022-08-03T19:17:38.404Z,98255.34
2022-08-03T19:20:06.503Z,98255.22
2022-08-03T19:22:33.811Z,98257.72
2022-08-03T19:25:04.514Z,98260.91
2022-08-03T19:27:32.130Z,98262.59
2022-08-03T19:30:03.077Z,98264.28
2022-08-03T19:32:32.443Z,98271.84
2022-08-03T19:35:01.417Z,98265.91
2022-08-03T19:40:19.787Z,98282.22
2022-08-03T19:42:50.280Z,98280.53
2022-08-03T19:48:14.299Z,98276.97
2022-08-03T19:50:44.537Z,98281.63
2022-08-03T19:53:13.115Z,98269.75
2022-08-03T19:55:48.156Z,98271.75
2022-08-03T19:58:17.840Z,98284.22
2022-08-03T20:00:55.567Z,98282.81
2022-08-03T20:03:24.925Z,98272.59
2022-08-03T20:05:54.199Z,98269.88
2022-08-03T20:08:22.099Z,98279.72
2022-08-03T20:10:49.415Z,98273.84
2022-08-03T20:13:19.386Z,98270.34
2022-08-03T20:15:46.265Z,98276.38
2022-08-03T20:18:17.023Z,98267.63
2022-08-03T20:20:47.983Z,98266.13
2022-08-03T20:23:18.208Z,98271.81
2022-08-03T20:25:58.643Z,98274.06
2022-08-03T20:28:31.145Z,98275.41
2022-08-03T20:30:58.064Z,98280.13
2022-08-03T20:33:27.901Z,98271.03
2022-08-03T20:36:12.386Z,98273.63
2022-08-03T20:38:46.862Z,98283.41
2022-08-03T20:41:14.640Z,98278.81
2022-08-03T20:43:41.636Z,98282.13
2022-08-03T20:46:29.076Z,98276.78
2022-08-03T20:48:57.170Z,98280.19
2022-08-03T20:51:52.277Z,98279.31
2022-08-03T20:54:22.550Z,98281.41
2022-08-03T20:56:56.570Z,98280.06
2022-08-03T20:59:23.552Z,98276.88
2022-08-03T21:01:50.730Z,98278.16
2022-08-03T21:07:16.593Z,98270.09
2022-08-03T21:09:57.046Z,98270.09
2022-08-03T21:12:33.349Z,98271.16
2022-08-03T21:12:58.868Z,98224.41
2022-08-03T21:13:11.155Z,98266.22
2022-08-03T21:13:12.501Z,98274.81
2022-08-03T21:13:12.763Z,98277.63
2022-08-03T21:15:03.661Z,98267.56
2022-08-03T21:17:41.003Z,98272.56
2022-08-03T21:20:12.684Z,98267.97
2022-08-03T21:22:43.808Z,98270.59
2022-08-03T21:25:13.690Z,98273.63
2022-08-03T21:27:40.802Z,98264.88
2022-08-03T21:30:10.206Z,98270.28
2022-08-03T21:32:40.306Z,98262.69
2022-08-03T21:35:12.529Z,98271.06
2022-08-03T21:37:40.917Z,98260.06
2022-08-03T21:40:09.426Z,98261.78
2022-08-03T21:42:35.987Z,98265.00
2022-08-03T21:45:08.076Z,98264.69
2022-08-03T21:47:39.854Z,98272.22
2022-08-03T21:50:09.992Z,98270.41
2022-08-03T21:52:43.477Z,98264.47
2022-08-03T21:55:20.671Z,98269.69
2022-08-03T21:57:52.569Z,98258.97
2022-08-03T22:00:22.827Z,98260.47
2022-08-03T22:02:54.765Z,98258.63
2022-08-03T22:05:28.912Z,98259.09
2022-08-03T22:08:09.877Z,98254.69
2022-08-03T22:10:37.167Z,98264.53
2022-08-03T22:13:03.880Z,98263.75
2022-08-03T22:15:30.694Z,98265.06
2022-08-03T22:17:59.464Z,98258.66
2022-08-03T22:20:26.107Z,98255.75
2022-08-03T22:22:55.973Z,98254.16
2022-08-03T22:25:29.019Z,98260.63
2022-08-03T22:27:57.381Z,98262.91
2022-08-03T22:30:23.904Z,98261.91
2022-08-03T22:32:54.158Z,98258.41
2022-08-03T22:35:21.527Z,98261.53
2022-08-03T22:37:53.739Z,98268.19
2022-08-03T22:40:20.643Z,98262.63
2022-08-03T22:42:49.538Z,98262.09
2022-08-03T22:46:07.219Z,98258.34
2022-08-03T22:48:07.901Z,98261.88
2022-08-03T22:50:35.406Z,98256.47
2022-08-03T22:53:02.420Z,98260.84
2022-08-03T22:55:31.042Z,98272.91
2022-08-03T22:57:57.512Z,98281.44
2022-08-03T23:00:24.604Z,98267.97
2022-08-03T23:02:53.759Z,98263.78
2022-08-03T23:06:02.271Z,98265.66
2022-08-03T23:08:13.063Z,98271.72
2022-08-03T23:10:46.124Z,98276.44
2022-08-03T23:13:17.856Z,98276.06
2022-08-03T23:15:51.852Z,98273.78
2022-08-03T23:18:20.837Z,98274.22
2022-08-03T23:20:51.538Z,98277.34
2022-08-03T23:23:20.026Z,98277.75
2022-08-03T23:25:50.035Z,98276.91
2022-08-03T23:28:17.255Z,98270.88
2022-08-03T23:30:49.764Z,98277.72
2022-08-03T23:33:17.572Z,98277.94
2022-08-03T23:36:28.810Z,98272.97
2022-08-03T23:38:44.617Z,98276.72
2022-08-03T23:41:13.347Z,98277.75
2022-08-03T23:43:51.326Z,98281.09
2022-08-03T23:46:21.142Z,98274.22
2022-08-03T23:48:47.816Z,98272.78
2022-08-03T23:51:30.467Z,98277.94
2022-08-03T23:54:06.157Z,98276.06
2022-08-03T23:56:50.874Z,98269.03
2022-08-03T23:59:26.196Z,98267.38
